createdAt,value
2023-04-20T03:47:59.309Z,97888.13
2023-04-20T03:50:25.836Z,97880.16
2023-04-20T03:52:52.266Z,97881.16
2023-04-20T03:55:18.598Z,97886.47
2023-04-20T03:57:45.028Z,97883.28
2023-04-20T04:00:11.634Z,97884.28
2023-04-20T04:02:38.645Z,97882.69
2023-04-20T04:10:54.145Z,97883.53
2023-04-20T04:13:20.645Z,97885.38
2023-04-20T04:15:47.069Z,97888.25
2023-04-20T04:18:13.478Z,97885.00
2023-04-20T04:20:39.861Z,97887.91
2023-04-20T04:23:06.339Z,97887.31
2023-04-20T04:25:32.700Z,97895.47
2023-04-20T04:27:59.045Z,97894.91
2023-04-20T04:30:39.209Z,97890.84
2023-04-20T04:33:07.853Z,97890.25
2023-04-20T04:35:34.371Z,97897.41
2023-04-20T04:38:00.650Z,97894.97
2023-04-20T04:40:26.888Z,97893.38
2023-04-20T04:42:53.199Z,97897.03
2023-04-20T04:45:19.550Z,97887.47
2023-04-20T04:47:45.943Z,97893.00
2023-04-20T04:50:12.371Z,97898.31
2023-04-20T04:52:38.751Z,97901.97
2023-04-20T04:55:07.557Z,97908.31
2023-04-20T04:57:36.541Z,97911.19
2023-04-20T05:00:09.191Z,97912.44
2023-04-20T05:02:47.373Z,97905.75
2023-04-20T05:05:28.929Z,97908.63
2023-04-20T05:11:17.424Z,97905.13
2023-04-20T05:26:01.973Z,97917.66
2023-04-20T05:28:28.803Z,97920.53
2023-04-20T05:30:55.341Z,97913.59
2023-04-20T05:33:21.769Z,97917.28
2023-04-20T05:35:48.163Z,97925.44
2023-04-20T05:38:14.523Z,97924.03
2023-04-20T05:40:40.793Z,97920.78
2023-04-20T05:43:07.031Z,97928.16
2023-04-20T05:45:33.477Z,97912.97
2023-04-20T05:47:59.817Z,97931.47
2023-04-20T05:50:26.208Z,97939.63
2023-04-20T05:52:52.717Z,97936.59
2023-04-20T05:55:21.416Z,97938.44
2023-04-20T05:57:48.785Z,97923.56
2023-04-20T06:00:16.481Z,97942.72
2023-04-20T06:02:43.029Z,97944.53
2023-04-20T06:05:09.732Z,97940.72
2023-04-20T06:07:36.183Z,97938.16
2023-04-20T06:10:02.433Z,97944.00
2023-04-20T06:12:28.659Z,97942.47
2023-04-20T06:14:54.930Z,97945.88
2023-04-20T06:17:21.246Z,97949.75
2023-04-20T06:19:47.477Z,97959.38
2023-04-20T06:22:13.719Z,97961.47
2023-04-20T06:24:39.949Z,97960.09
2023-04-20T06:27:06.167Z,97962.41
2023-04-20T06:29:32.362Z,97958.88
2023-04-20T06:31:58.626Z,97966.50
2023-04-20T06:34:24.839Z,97966.41
2023-04-20T06:36:51.093Z,97973.69
2023-04-20T06:39:17.581Z,97977.50
2023-04-20T06:41:45.385Z,97982.94
2023-04-20T06:44:11.855Z,97983.06
2023-04-20T06:46:38.343Z,97980.97
2023-04-20T06:49:05.194Z,97989.31
2023-04-20T06:51:34.496Z,97991.75
2023-04-20T06:54:02.800Z,97985.94
2023-04-20T06:56:29.146Z,97983.88
2023-04-20T06:58:55.635Z,97980.97
2023-04-20T07:01:22.126Z,97986.63
2023-04-20T07:03:52.691Z,97994.38
2023-04-20T07:06:19.521Z,97995.22
2023-04-20T07:08:45.955Z,97991.50
2023-04-20T07:11:12.330Z,98000.28
2023-04-20T07:13:41.412Z,98003.78
2023-04-20T07:16:07.979Z,98003.78
2023-04-20T07:18:35.433Z,97996.03
2023-04-20T07:21:02.170Z,98002.97
2023-04-20T07:23:28.556Z,97996.38
2023-04-20T07:25:55.004Z,97995.06
2023-04-20T07:28:21.277Z,97994.06
2023-04-20T07:30:47.847Z,98006.06
2023-04-20T07:33:14.414Z,98001.34
2023-04-20T07:35:40.928Z,97996.59
2023-04-20T07:38:07.450Z,98005.16
2023-04-20T07:40:48.201Z,98003.06
2023-04-20T07:46:10.586Z,98006.88
2023-04-20T07:49:06.720Z,98016.25
2023-04-20T07:54:34.737Z,98013.94
2023-04-20T07:57:01.144Z,98022.50
2023-04-20T07:59:47.229Z,98011.84
2023-04-20T08:02:13.663Z,98022.03
2023-04-20T08:04:40.402Z,98018.31
2023-04-20T08:07:07.003Z,98024.47
2023-04-20T08:09:33.449Z,98030.03
2023-04-20T08:11:59.798Z,98022.03
2023-04-20T08:14:26.145Z,98019.59
2023-04-20T08:16:52.493Z,98022.28
2023-04-20T08:19:19.014Z,98025.75
2023-04-20T08:21:45.419Z,98020.44
2023-04-20T08:24:11.769Z,98024.69
2023-04-20T08:26:38.281Z,98019.94
2023-04-20T08:29:04.650Z,98024.22
2023-04-20T08:31:31.046Z,98028.53
2023-04-20T08:33:58.804Z,98028.28
2023-04-20T08:36:49.498Z,98027.22
2023-04-20T08:39:23.186Z,98026.81
2023-04-20T08:41:49.700Z,98031.31
2023-04-20T08:44:16.043Z,98035.81
2023-04-20T08:46:42.408Z,98024.31
2023-04-20T08:49:09.055Z,98031.31
2023-04-20T08:51:35.255Z,98030.84
2023-04-20T08:54:03.586Z,98036.50
2023-04-20T08:56:29.821Z,98034.66
2023-04-20T08:58:56.144Z,98036.28
2023-04-20T09:01:28.727Z,98048.56
2023-04-20T09:04:01.057Z,98039.63
2023-04-20T09:06:27.436Z,98036.03
2023-04-20T09:08:55.718Z,98028.81
2023-04-20T09:11:21.983Z,98028.81
2023-04-20T09:13:48.199Z,98036.59
2023-04-20T09:16:14.415Z,98038.69
2023-04-20T09:21:34.030Z,98046.78
2023-04-20T09:24:00.368Z,98042.75
2023-04-20T09:26:26.635Z,98043.00
2023-04-20T09:28:53.004Z,98046.44
2023-04-20T09:31:19.317Z,98047.28
2023-04-20T09:33:45.694Z,98044.94
2023-04-20T09:36:12.483Z,98045.28
2023-04-20T09:38:39.844Z,98045.63
2023-04-20T09:41:54.320Z,98048.72
2023-04-20T09:43:56.688Z,98044.06
2023-04-20T09:46:23.526Z,98038.81
2023-04-20T09:48:49.792Z,98048.41
2023-04-20T09:51:16.053Z,98035.00
2023-04-20T09:53:42.244Z,98030.69
2023-04-20T09:56:08.446Z,98032.00
2023-04-20T09:58:34.716Z,98029.81
2023-04-20T10:01:00.987Z,98030.03
2023-04-20T10:03:27.439Z,98029.81
2023-04-20T10:05:53.713Z,98025.28
2023-04-20T10:08:22.070Z,98027.69
2023-04-20T10:10:48.293Z,98032.25
2023-04-20T10:13:14.629Z,98030.16
2023-04-20T10:15:40.883Z,98021.59
2023-04-20T10:18:07.146Z,98025.28
2023-04-20T10:20:33.457Z,98034.91
2023-04-20T10:22:59.706Z,98038.63
2023-04-20T10:25:25.997Z,98043.38
2023-04-20T10:30:37.303Z,98034.00
2023-04-20T10:33:03.712Z,98037.94
2023-04-20T10:35:29.944Z,98040.63
2023-04-20T10:37:56.164Z,98035.53
2023-04-20T10:40:22.399Z,98037.63
2023-04-20T10:42:48.624Z,98038.66
2023-04-20T10:45:14.830Z,98043.75
2023-04-20T10:47:41.171Z,98039.81
2023-04-20T10:50:07.525Z,98036.91
2023-04-20T10:52:33.735Z,98027.84
2023-04-20T10:55:00.028Z,98026.91
2023-04-20T10:57:26.228Z,98027.34
2023-04-20T10:59:52.452Z,98022.91
2023-04-20T11:02:18.781Z,98011.16
2023-04-20T11:04:45.107Z,98019.16
2023-04-20T11:07:11.554Z,98015.81
2023-04-20T11:09:37.803Z,98018.84
2023-04-20T11:12:04.284Z,98007.91
2023-04-20T11:14:30.749Z,97999.41
2023-04-20T11:16:57.294Z,98004.25
2023-04-20T11:19:25.006Z,98003.78
2023-04-20T11:21:51.385Z,97993.03
2023-04-20T11:24:19.595Z,97999.03
2023-04-20T11:26:46.062Z,97989.22
2023-04-20T11:29:12.360Z,97992.69
2023-04-20T11:31:38.910Z,97997.63
2023-04-20T11:34:07.080Z,97990.66
2023-04-20T11:36:33.647Z,97990.91
2023-04-20T11:39:00.262Z,97986.38
2023-04-20T11:41:26.603Z,97994.47
2023-04-20T11:43:53.013Z,97993.66
2023-04-20T11:46:20.687Z,97996.06
2023-04-20T11:48:47.697Z,97994.16
2023-04-20T11:51:14.521Z,97991.22
2023-04-20T11:53:40.842Z,97994.78
2023-04-20T11:56:08.216Z,97986.47
2023-04-20T11:58:35.554Z,97977.31
2023-04-20T12:01:03.033Z,97985.91
2023-04-20T12:06:41.008Z,97991.56
2023-04-20T12:09:25.902Z,97985.72
2023-04-20T12:11:52.426Z,97990.34
2023-04-20T12:14:18.808Z,97989.13
2023-04-20T12:16:45.405Z,97986.91
2023-04-20T12:19:11.758Z,97981.59
2023-04-20T12:21:38.099Z,97979.22
2023-04-20T12:24:04.400Z,97971.22
2023-04-20T12:26:37.888Z,97971.97
2023-04-20T12:29:04.928Z,97962.09
2023-04-20T12:31:31.255Z,97958.94
2023-04-20T12:33:57.929Z,97957.84
2023-04-20T12:36:24.880Z,97959.50
2023-04-20T12:38:51.552Z,97948.56
2023-04-20T12:41:17.810Z,97963.00
2023-04-20T12:43:49.469Z,97949.97
2023-04-20T12:46:15.974Z,97949.81
2023-04-20T12:48:42.428Z,97938.72
2023-04-20T12:51:08.857Z,97939.59
2023-04-20T12:53:35.409Z,97927.59
2023-04-20T12:56:02.077Z,97926.53
2023-04-20T12:58:28.629Z,97915.03
2023-04-20T13:00:55.332Z,97917.72
2023-04-20T13:03:21.959Z,97905.41
2023-04-20T13:05:48.612Z,97915.03
2023-04-20T13:08:14.923Z,97912.38
2023-04-20T13:10:45.217Z,97920.38
2023-04-20T13:13:11.547Z,97912.09
2023-04-20T13:15:39.118Z,97915.59
2023-04-20T13:18:06.229Z,97916.69
2023-04-20T13:20:32.975Z,97906.47
2023-04-20T13:22:59.350Z,97907.22
2023-04-20T13:25:25.631Z,97909.56
2023-04-20T13:27:52.229Z,97906.31
2023-04-20T13:30:18.583Z,97906.31
2023-04-20T13:32:45.217Z,97912.47
2023-04-20T13:35:14.696Z,97913.28
2023-04-20T13:37:40.945Z,97905.28
2023-04-20T13:40:10.214Z,97901.22
2023-04-20T13:42:36.629Z,97896.13
2023-04-20T13:45:03.528Z,97897.44
2023-04-20T13:47:30.239Z,97889.66
2023-04-20T13:49:57.428Z,97891.78
2023-04-20T13:52:24.027Z,97889.34
2023-04-20T13:54:50.327Z,97884.25
2023-04-20T13:57:16.875Z,97878.94
2023-04-20T13:59:43.221Z,97870.34
2023-04-20T14:02:09.717Z,97864.44
2023-04-20T14:04:36.591Z,97874.56
2023-04-20T14:07:03.110Z,97869.22
2023-04-20T14:09:29.528Z,97866.53
2023-04-20T14:11:57.182Z,97869.47
2023-04-20T14:14:26.688Z,97873.47
2023-04-20T14:16:53.029Z,97863.81
2023-04-20T14:19:19.564Z,97868.63
2023-04-20T14:21:46.363Z,97862.47
2023-04-20T14:24:12.849Z,97853.66
2023-04-20T14:26:39.268Z,97862.72
2023-04-20T14:29:05.592Z,97861.34
2023-04-20T14:31:32.023Z,97860.00
2023-04-20T14:33:58.357Z,97863.13
2023-04-20T14:36:24.698Z,97866.88
2023-04-20T14:38:51.073Z,97861.22
2023-04-20T14:41:17.507Z,97871.09
2023-04-20T14:43:43.824Z,97854.75
2023-04-20T14:46:10.400Z,97860.34
2023-04-20T14:48:36.749Z,97860.34
2023-04-20T14:51:03.080Z,97856.84
2023-04-20T14:53:30.546Z,97864.63
2023-04-20T14:58:48.571Z,97861.94
2023-04-20T15:01:15.190Z,97861.94
2023-04-20T15:03:42.276Z,97860.34
2023-04-20T15:08:49.665Z,97859.28
2023-04-20T15:11:16.070Z,97854.50
2023-04-20T15:13:42.373Z,97856.44
2023-04-20T15:16:31.695Z,97851.41
2023-04-20T15:18:58.688Z,97851.72
2023-04-20T15:21:25.052Z,97848.31
2023-04-20T15:23:51.421Z,97847.00
2023-04-20T15:26:17.764Z,97846.50
2023-04-20T15:28:44.600Z,97839.06
2023-04-20T15:31:10.845Z,97846.81
2023-04-20T15:33:37.142Z,97841.22
2023-04-20T15:36:03.506Z,97844.44
2023-04-20T15:38:29.873Z,97843.94
2023-04-20T15:40:56.938Z,97821.53
2023-04-20T15:43:23.529Z,97835.19
2023-04-20T15:45:50.000Z,97840.28
2023-04-20T15:48:16.781Z,97840.28
2023-04-20T15:50:43.251Z,97837.88
2023-04-20T15:53:09.687Z,97824.25
2023-04-20T15:55:36.913Z,97821.34
2023-04-20T15:58:03.242Z,97821.06
2023-04-20T16:00:29.589Z,97817.59
2023-04-20T16:02:56.272Z,97814.91
2023-04-20T16:05:22.778Z,97816.00
2023-04-20T16:07:49.137Z,97826.13
2023-04-20T16:10:16.321Z,97825.56
2023-04-20T16:15:53.630Z,97831.41
2023-04-20T16:18:20.010Z,97851.97
2023-04-20T16:20:46.361Z,97844.19
2023-04-20T16:23:12.712Z,97842.59
2023-04-20T16:25:39.049Z,97839.09
2023-04-20T16:28:05.399Z,97847.13
2023-04-20T16:30:31.699Z,97850.03
2023-04-20T16:32:58.103Z,97855.38
2023-04-20T16:35:24.497Z,97853.19
2023-04-20T16:37:51.034Z,97852.66
2023-04-20T16:40:17.386Z,97863.59
2023-04-20T16:42:43.908Z,97862.22
2023-04-20T16:45:10.453Z,97855.28
2023-04-20T16:47:36.924Z,97852.03
2023-04-20T16:50:03.247Z,97852.28
2023-04-20T16:52:29.708Z,97847.19
2023-04-20T16:54:56.070Z,97840.22
2023-04-20T16:57:22.493Z,97833.28
2023-04-20T16:59:49.179Z,97828.44
2023-04-20T17:02:15.645Z,97833.44
2023-04-20T17:04:42.451Z,97833.16
2023-04-20T17:07:08.772Z,97836.31
2023-04-20T17:09:35.181Z,97838.41
2023-04-20T17:12:01.661Z,97843.19
2023-04-20T17:14:27.953Z,97855.97
2023-04-20T17:16:54.446Z,97856.47
2023-04-20T17:19:20.851Z,97864.16
2023-04-20T17:21:47.388Z,97868.94
2023-04-20T17:24:15.712Z,97880.13
2023-04-20T17:26:42.157Z,97879.56
2023-04-20T17:29:08.741Z,97881.44
2023-04-20T17:31:35.033Z,97873.09
2023-04-20T17:34:01.857Z,97873.91
2023-04-20T17:36:28.263Z,97870.66
2023-04-20T17:38:54.840Z,97869.88
2023-04-20T17:41:21.159Z,97865.56
2023-04-20T17:43:47.486Z,97873.00
2023-04-20T17:46:13.870Z,97877.56
2023-04-20T17:48:40.361Z,97875.94
2023-04-20T17:51:06.735Z,97877.00
2023-04-20T17:53:35.127Z,97877.25
2023-04-20T17:56:01.473Z,97867.59
2023-04-20T17:58:27.994Z,97866.81
2023-04-20T18:00:54.400Z,97872.16
2023-04-20T18:03:20.886Z,97875.59
2023-04-20T18:05:47.373Z,97880.69
2023-04-20T18:08:14.536Z,97877.00
2023-04-20T18:10:40.844Z,97888.25
2023-04-20T18:13:07.292Z,97879.16
2023-04-20T18:15:36.888Z,97886.66
2023-04-20T18:18:04.889Z,97886.19
2023-04-20T18:20:32.534Z,97881.44
2023-04-20T18:22:59.671Z,97884.63
2023-04-20T18:25:26.205Z,97887.88
2023-04-20T18:27:52.728Z,97878.00
2023-04-20T18:30:19.213Z,97878.84
2023-04-20T18:32:45.710Z,97875.09
2023-04-20T18:35:12.296Z,97882.84
2023-04-20T18:37:38.598Z,97876.72
2023-04-20T18:40:04.967Z,97869.50
2023-04-20T18:42:31.396Z,97864.16
2023-04-20T18:44:57.923Z,97867.09
2023-04-20T18:47:24.270Z,97867.09
2023-04-20T18:49:50.626Z,97875.91
2023-04-20T18:52:16.958Z,97870.25
2023-04-20T18:54:43.833Z,97875.03
2023-04-20T18:57:10.221Z,97883.03
2023-04-20T18:59:36.761Z,97881.97
2023-04-20T19:02:03.308Z,97886.28
2023-04-20T19:04:29.860Z,97887.09
2023-04-20T19:06:56.504Z,97888.69
2023-04-20T19:09:23.784Z,97893.78
2023-04-20T19:11:50.370Z,97898.31
2023-04-20T19:14:17.171Z,97900.75
2023-04-20T19:16:44.662Z,97903.41
2023-04-20T19:19:11.069Z,97902.34
2023-04-20T19:21:37.782Z,97903.97
2023-04-20T19:24:04.122Z,97892.50
2023-04-20T19:26:30.492Z,97898.63
2023-04-20T19:28:57.090Z,97886.34
2023-04-20T19:31:23.374Z,97889.25
2023-04-20T19:33:49.765Z,97879.16
2023-04-20T19:36:16.259Z,97881.25
2023-04-20T19:38:43.372Z,97869.75
2023-04-20T19:41:09.850Z,97872.44
2023-04-20T19:43:36.260Z,97867.34
2023-04-20T19:46:02.688Z,97868.94
2023-04-20T19:48:29.051Z,97863.84
2023-04-20T19:50:55.371Z,97858.50
2023-04-20T19:53:21.719Z,97859.34
2023-04-20T19:55:48.054Z,97855.84
2023-04-20T19:58:14.409Z,97846.00
2023-04-20T20:00:40.846Z,97846.00
2023-04-20T20:03:07.293Z,97863.84
2023-04-20T20:05:34.608Z,97859.59
2023-04-20T20:08:00.962Z,97864.91
2023-04-20T20:10:27.607Z,97864.91
2023-04-20T20:12:53.946Z,97865.97
2023-04-20T20:15:20.294Z,97865.97
2023-04-20T20:17:46.779Z,97860.63
2023-04-20T20:20:13.562Z,97866.53
2023-04-20T20:22:48.783Z,97854.81
2023-04-20T20:25:15.543Z,97851.91
2023-04-20T20:27:41.819Z,97857.78
2023-04-20T20:30:08.128Z,97853.81
2023-04-20T20:32:35.062Z,97842.88
2023-04-20T20:35:01.575Z,97839.97
2023-04-20T20:37:31.047Z,97844.00
2023-04-20T20:39:57.349Z,97841.09
2023-04-20T20:42:23.636Z,97837.91
2023-04-20T20:44:50.250Z,97834.22
2023-04-20T20:47:16.767Z,97837.44
2023-04-20T20:52:38.604Z,97839.03
2023-04-20T20:55:05.359Z,97841.47
2023-04-20T20:57:31.722Z,97836.13
2023-04-20T20:59:58.145Z,97837.19
2023-04-20T21:02:24.512Z,97839.88
2023-04-20T21:04:51.093Z,97834.53
2023-04-20T21:07:17.505Z,97836.94
2023-04-20T21:09:43.897Z,97836.94
2023-04-20T21:12:10.199Z,97840.44
2023-04-20T21:14:36.734Z,97839.59
2023-04-20T21:17:03.206Z,97845.75
2023-04-20T21:19:29.522Z,97846.56
2023-04-20T21:21:55.836Z,97836.94
2023-04-20T21:24:22.434Z,97833.44
2023-04-20T21:26:48.753Z,97835.34
2023-04-20T21:29:15.094Z,97836.38
2023-04-20T21:31:41.479Z,97841.72
2023-04-20T21:34:07.765Z,97836.38
2023-04-20T21:36:34.169Z,97836.38
2023-04-20T21:39:00.678Z,97841.97
2023-04-20T21:41:27.006Z,97847.88
2023-04-20T21:43:53.301Z,97839.03
2023-04-20T21:46:19.698Z,97836.63
2023-04-20T21:48:46.055Z,97840.13
2023-04-20T21:51:12.361Z,97835.81
2023-04-20T21:53:38.752Z,97838.47
2023-04-20T21:56:05.300Z,97833.16
2023-04-20T21:58:31.609Z,97839.56
2023-04-20T22:00:58.041Z,97839.56
2023-04-20T22:03:24.527Z,97836.88
2023-04-20T22:05:54.004Z,97831.53
2023-04-20T22:08:20.400Z,97822.72
2023-04-20T22:10:46.688Z,97824.56
2023-04-20T22:13:13.264Z,97818.44
2023-04-20T22:15:39.684Z,97822.97
2023-04-20T22:18:06.269Z,97822.16
2023-04-20T22:20:32.607Z,97818.69
2023-04-20T22:22:59.008Z,97817.63
2023-04-20T22:25:28.359Z,97812.53
2023-04-20T22:27:54.736Z,97810.91
2023-04-20T22:30:21.048Z,97804.78
2023-04-20T22:32:47.676Z,97815.47
2023-04-20T22:35:14.109Z,97818.91
2023-04-20T22:40:34.238Z,97818.31
2023-04-20T22:43:02.588Z,97813.66
2023-04-20T22:45:28.918Z,97798.53
2023-04-20T22:47:55.277Z,97791.22
2023-04-20T22:50:21.566Z,97793.47
2023-04-20T22:52:47.846Z,97786.69
2023-04-20T22:55:14.316Z,97794.31
2023-04-20T22:57:40.644Z,97789.94
2023-04-20T23:00:06.997Z,97782.94
2023-04-20T23:02:35.238Z,97780.44
2023-04-20T23:05:02.085Z,97775.25
2023-04-20T23:07:30.905Z,97766.63
2023-04-20T23:09:57.232Z,97762.03
2023-04-20T23:12:23.589Z,97761.94
2023-04-20T23:14:49.930Z,97753.88
2023-04-20T23:17:16.465Z,97752.16
2023-04-20T23:19:42.771Z,97751.84
2023-04-20T23:22:09.133Z,97753.63
2023-04-20T23:24:35.455Z,97742.63
2023-04-20T23:27:01.864Z,97746.03
2023-04-20T23:29:28.435Z,97749.41
2023-04-20T23:31:54.816Z,97751.75
2023-04-20T23:34:21.133Z,97741.78
2023-04-20T23:36:48.026Z,97739.63
2023-04-20T23:39:14.448Z,97735.81
2023-04-20T23:41:40.926Z,97735.72
2023-04-20T23:44:07.270Z,97735.16
2023-04-20T23:46:33.630Z,97739.34
2023-04-20T23:49:00.134Z,97735.31
2023-04-20T23:51:26.489Z,97733.38
2023-04-20T23:53:53.109Z,97732.81
2023-04-20T23:56:19.386Z,97716.50
2023-04-20T23:58:46.899Z,97723.91
